Time;durP1;ratioP1;P1;durP2;ratioP2;P2;SDS_P1;SDS_P2;PMS_P1;PMS_P2;Temp;Humidity;BMP_temperature;BMP_pressure;BME280_temperature;BME280_humidity;BME280_pressure;Samples;Min_cycle;Max_cycle;Signal;HPM_P1;HPM_P2
2021/10/01 00:00:06;;;;;;;31.13;8.35;;;20.70;99.90;;;;;;5071990;28;20038;-68
2021/10/01 00:02:34;;;;;;;10.45;6.90;;;20.60;99.90;;;;;;5071982;28;20017;-68
2021/10/01 00:05:01;;;;;;;10.60;5.97;;;20.60;99.90;;;;;;5071882;28;20046;-68
2021/10/01 00:07:29;;;;;;;5.90;5.32;;;20.60;99.90;;;;;;5071931;28;20096;-67
2021/10/01 00:09:58;;;;;;;14.93;5.85;;;20.60;99.90;;;;;;5074520;28;20104;-67
2021/10/01 00:12:25;;;;;;;5.93;5.28;;;20.80;99.90;;;;;;5074257;28;20112;-68
2021/10/01 00:14:53;;;;;;;5.18;4.63;;;21.10;99.90;;;;;;5075302;28;20473;-67
2021/10/01 00:17:20;;;;;;;4.20;3.90;;;21.30;99.90;;;;;;5074210;28;20024;-66
2021/10/01 00:19:48;;;;;;;4.30;3.95;;;21.70;99.90;;;;;;5075470;28;20388;-67
2021/10/01 00:22:15;;;;;;;4.53;3.60;;;22.10;99.90;;;;;;5075783;28;20533;-66
2021/10/01 00:24:43;;;;;;;3.47;3.20;;;22.10;99.90;;;;;;5073888;28;20119;-67
2021/10/01 00:27:13;;;;;;;3.10;2.90;;;22.40;99.90;;;;;;5075322;28;20079;-67
2021/10/01 00:29:41;;;;;;;3.08;2.88;;;22.60;97.90;;;;;;5074069;28;20707;-67
2021/10/01 00:32:08;;;;;;;3.20;2.80;;;22.60;98.80;;;;;;5075207;28;20023;-68
2021/10/01 00:34:36;;;;;;;3.30;3.10;;;22.80;98.90;;;;;;5075241;28;20081;-69
2021/10/01 00:37:04;;;;;;;2.90;2.70;;;23.00;98.90;;;;;;5075192;28;20017;-69
2021/10/01 00:39:31;;;;;;;3.15;2.72;;;23.10;98.30;;;;;;5075597;28;20044;-70
2021/10/01 00:42:00;;;;;;;2.35;2.25;;;23.40;99.20;;;;;;5075100;28;20025;-67
2021/10/01 00:44:28;;;;;;;2.78;2.58;;;23.70;98.90;;;;;;5074827;28;20036;-66
2021/10/01 00:46:56;;;;;;;2.65;2.40;;;23.80;97.80;;;;;;5075056;28;20048;-69
2021/10/01 00:49:23;;;;;;;2.50;2.30;;;24.20;99.70;;;;;;5073714;28;20111;-68
2021/10/01 00:51:52;;;;;;;2.53;2.40;;;24.00;98.90;;;;;;5073536;28;20587;-67
2021/10/01 00:54:20;;;;;;;2.40;2.20;;;23.90;98.30;;;;;;5074907;28;20381;-66
2021/10/01 00:56:48;;;;;;;3.03;2.50;;;23.70;98.80;;;;;;5074807;28;20032;-67
2021/10/01 00:59:15;;;;;;;2.42;2.22;;;23.30;98.70;;;;;;5073326;28;20029;-67
2021/10/01 01:01:43;;;;;;;2.50;2.28;;;23.30;99.30;;;;;;5073418;28;20016;-67
2021/10/01 01:04:11;;;;;;;2.83;2.20;;;23.20;99.30;;;;;;5074496;28;20074;-67
2021/10/01 01:06:54;;;;;;;2.83;2.47;;;23.30;99.60;;;;;;5073192;28;20477;-68
2021/10/01 01:09:40;;;;;;;2.47;2.35;;;23.40;98.50;;;;;;5074732;28;20385;-68
2021/10/01 01:12:17;;;;;;;2.83;2.53;;;23.50;98.10;;;;;;5074614;28;20025;-67
2021/10/01 01:15:23;;;;;;;2.83;2.63;;;23.60;98.40;;;;;;5074460;28;20021;-68
2021/10/01 01:17:58;;;;;;;2.70;2.50;;;23.80;98.90;;;;;;5074627;28;20451;-67
2021/10/01 01:20:38;;;;;;;3.53;2.80;;;24.00;98.70;;;;;;5073366;28;20020;-67
2021/10/01 01:23:23;;;;;;;2.47;2.20;;;;;;;;;;5073070;28;20029;-67
2021/10/01 01:25:54;;;;;;;2.38;2.28;;;24.60;99.90;;;;;;5074139;28;20028;-68
2021/10/01 01:28:45;;;;;;;6.00;2.50;;;24.80;97.90;;;;;;5074188;28;20020;-68
2021/10/01 01:31:44;;;;;;;2.50;2.40;;;25.10;96.80;;;;;;5073847;28;20393;-69
2021/10/01 01:34:20;;;;;;;2.85;2.20;;;25.60;97.70;;;;;;5072871;28;20021;-68
2021/10/01 01:36:55;;;;;;;2.55;2.10;;;25.70;96.40;;;;;;5074047;28;20035;-69
2021/10/01 01:39:24;;;;;;;2.10;1.90;;;25.80;96.60;;;;;;5072866;28;20021;-69
2021/10/01 01:41:54;;;;;;;2.30;2.10;;;25.50;93.80;;;;;;5073889;28;20017;-71
2021/10/01 01:44:23;;;;;;;3.92;2.30;;;25.40;94.50;;;;;;5074162;28;20118;-66
2021/10/01 01:46:51;;;;;;;2.50;2.05;;;25.80;93.40;;;;;;5073920;28;20024;-69
2021/10/01 01:49:22;;;;;;;2.40;2.20;;;25.90;94.10;;;;;;5073755;28;20492;-67
2021/10/01 01:51:50;;;;;;;2.10;2.00;;;25.90;94.10;;;;;;5072324;28;20389;-67
2021/10/01 01:54:22;;;;;;;2.55;2.35;;;25.90;93.90;;;;;;5073703;28;20035;-67
2021/10/01 01:56:49;;;;;;;2.50;2.30;;;25.80;93.40;;;;;;5073506;28;20020;-67
2021/10/01 01:59:17;;;;;;;2.45;2.10;;;25.80;94.40;;;;;;5073509;28;20032;-69
2021/10/01 02:01:46;;;;;;;2.97;2.67;;;25.80;93.70;;;;;;5073468;28;20032;-69
2021/10/01 02:04:14;;;;;;;6.00;3.47;;;25.70;94.90;;;;;;5073390;28;20468;-68
2021/10/01 02:06:43;;;;;;;5.28;3.33;;;25.80;95.20;;;;;;5073363;28;20113;-68
2021/10/01 02:09:11;;;;;;;3.10;2.80;;;25.90;95.20;;;;;;5073416;28;20029;-69
2021/10/01 02:11:44;;;;;;;5.47;2.88;;;26.10;93.80;;;;;;5073394;28;20036;-69
2021/10/01 02:14:18;;;;;;;4.50;3.22;;;26.10;94.80;;;;;;5072058;28;20025;-69
2021/10/01 02:16:48;;;;;;;3.72;3.28;;;26.10;94.80;;;;;;5071905;28;20045;-69
2021/10/01 02:19:18;;;;;;;5.13;3.22;;;25.80;94.80;;;;;;5071942;28;20020;-69
2021/10/01 02:21:48;;;;;;;4.15;2.85;;;25.30;95.10;;;;;;5073158;28;20017;-70
2021/10/01 02:24:16;;;;;;;3.42;3.13;;;25.40;95.80;;;;;;5071870;28;20035;-70
2021/10/01 02:27:07;;;;;;;4.55;3.00;;;25.30;95.40;;;;;;5073077;28;20103;-72
2021/10/01 02:29:48;;;;;;;3.63;3.20;;;25.20;96.10;;;;;;5072862;28;20035;-71
2021/10/01 02:32:21;;;;;;;6.20;3.40;;;25.30;96.40;;;;;;5072966;28;20481;-70
2021/10/01 02:34:50;;;;;;;4.45;3.20;;;25.30;95.90;;;;;;5073117;28;20028;-70
2021/10/01 02:37:18;;;;;;;5.35;3.05;;;25.20;95.70;;;;;;5072973;28;20035;-70
2021/10/01 02:39:48;;;;;;;4.25;2.72;;;25.10;95.70;;;;;;5072765;28;20511;-72
2021/10/01 02:42:17;;;;;;;3.63;2.72;;;25.30;95.50;;;;;;5071399;28;20043;-70
2021/10/01 02:44:46;;;;;;;4.70;3.00;;;24.80;95.50;;;;;;5073051;28;20048;-72
2021/10/01 02:47:16;;;;;;;3.35;2.58;;;24.90;95.30;;;;;;5072869;28;20477;-71
2021/10/01 02:49:44;;;;;;;3.40;2.83;;;25.00;95.00;;;;;;5072866;28;20016;-71
2021/10/01 02:52:28;;;;;;;3.30;3.00;;;24.80;95.80;;;;;;5072798;28;20103;-71
2021/10/01 02:55:16;;;;;;;5.40;2.90;;;25.00;96.00;;;;;;5071330;28;20111;-72
2021/10/01 02:57:55;;;;;;;4.63;2.70;;;24.80;96.20;;;;;;5072393;28;20086;-72
2021/10/01 03:00:23;;;;;;;3.55;2.97;;;25.00;95.70;;;;;;5072952;28;20497;-71
2021/10/01 03:02:53;;;;;;;5.93;3.30;;;25.40;96.10;;;;;;5072760;28;20476;-72
2021/10/01 03:05:23;;;;;;;4.30;2.85;;;25.60;95.20;;;;;;5072545;28;20029;-72
2021/10/01 03:07:51;;;;;;;4.80;3.17;;;25.70;95.80;;;;;;5072613;28;20031;-73
2021/10/01 03:10:19;;;;;;;6.57;3.22;;;25.70;95.30;;;;;;5072526;28;20096;-71
2021/10/01 03:12:47;;;;;;;6.50;3.50;;;25.60;95.00;;;;;;5072441;28;20029;-71
2021/10/01 03:15:15;;;;;;;5.25;2.65;;;25.60;95.50;;;;;;5072273;28;20045;-72
2021/10/01 03:17:43;;;;;;;4.05;3.50;;;25.30;95.40;;;;;;5071202;28;20027;-72
2021/10/01 03:20:11;;;;;;;7.70;3.97;;;25.00;95.80;;;;;;5072635;28;20048;-72
2021/10/01 03:22:41;;;;;;;6.00;3.53;;;24.90;96.70;;;;;;5072772;28;20103;-72
2021/10/01 03:25:11;;;;;;;7.18;4.10;;;25.10;97.00;;;;;;5070938;28;20032;-72
2021/10/01 03:27:39;;;;;;;4.10;3.33;;;25.00;97.20;;;;;;5072503;28;20028;-72
2021/10/01 03:30:09;;;;;;;9.63;4.20;;;24.50;97.70;;;;;;5071262;28;20159;-72
2021/10/01 03:32:37;;;;;;;7.22;3.60;;;24.50;97.40;;;;;;5072299;28;20036;-72
2021/10/01 03:35:08;;;;;;;6.32;4.00;;;24.60;97.40;;;;;;5072081;28;20104;-71
2021/10/01 03:37:37;;;;;;;7.60;3.60;;;24.50;97.40;;;;;;5072362;28;20385;-68
2021/10/01 03:40:08;;;;;;;3.83;3.30;;;24.40;97.70;;;;;;5072281;28;20385;-70
2021/10/01 03:42:36;;;;;;;4.18;3.20;;;24.30;97.50;;;;;;5072209;28;20017;-69
2021/10/01 03:45:05;;;;;;;4.53;2.92;;;24.40;97.60;;;;;;5075392;28;20060;-70
2021/10/01 03:47:33;;;;;;;4.07;3.53;;;24.60;97.50;;;;;;5074841;28;20028;-70
2021/10/01 03:50:00;;;;;;;4.03;3.15;;;24.40;97.30;;;;;;5076210;28;20028;-70
2021/10/01 03:52:27;;;;;;;8.07;3.22;;;24.80;97.60;;;;;;5076140;28;20028;-69
2021/10/01 03:54:55;;;;;;;4.00;3.00;;;24.40;96.80;;;;;;5074559;28;20024;-69
2021/10/01 03:57:22;;;;;;;4.40;3.30;;;24.00;97.10;;;;;;5074722;28;20020;-69
2021/10/01 03:59:50;;;;;;;6.13;3.78;;;24.20;97.60;;;;;;5075821;28;20023;-68
2021/10/01 04:02:17;;;;;;;4.07;3.00;;;24.30;97.60;;;;;;5075900;28;20078;-69
2021/10/01 04:04:44;;;;;;;6.15;2.60;;;24.00;96.60;;;;;;5075744;28;20099;-69
2021/10/01 04:07:12;;;;;;;3.67;2.88;;;24.00;96.80;;;;;;5074434;28;20021;-69
2021/10/01 04:09:39;;;;;;;3.30;2.60;;;24.10;96.60;;;;;;5075754;28;20028;-69
2021/10/01 04:12:07;;;;;;;2.78;2.55;;;24.20;95.90;;;;;;5075733;28;20471;-69
2021/10/01 04:14:35;;;;;;;4.55;2.50;;;24.50;96.00;;;;;;5075643;28;20084;-70
2021/10/01 04:17:03;;;;;;;3.30;2.65;;;24.50;95.10;;;;;;5075538;28;20040;-70
2021/10/01 04:19:30;;;;;;;3.00;2.60;;;24.40;95.40;;;;;;5074307;28;20039;-69
2021/10/01 04:21:58;;;;;;;3.10;2.80;;;24.00;95.40;;;;;;5075586;28;20051;-69
2021/10/01 04:24:25;;;;;;;2.90;2.45;;;24.00;95.70;;;;;;5074263;28;20115;-70
2021/10/01 04:26:52;;;;;;;3.13;2.50;;;24.10;95.60;;;;;;5075527;28;20480;-71
2021/10/01 04:29:20;;;;;;;4.30;2.70;;;24.10;94.80;;;;;;5074171;28;20058;-69
2021/10/01 04:31:47;;;;;;;3.33;2.55;;;24.20;95.30;;;;;;5074140;28;20032;-69
2021/10/01 04:34:14;;;;;;;4.55;2.95;;;24.10;95.30;;;;;;5075409;28;20483;-70
2021/10/01 04:36:42;;;;;;;4.03;2.95;;;24.30;95.70;;;;;;5075324;28;20389;-70
2021/10/01 04:39:10;;;;;;;5.75;2.50;;;24.20;95.60;;;;;;5074166;28;20029;-70
2021/10/01 04:41:37;;;;;;;4.03;3.05;;;24.30;96.00;;;;;;5073973;28;20035;-70
2021/10/01 04:44:06;;;;;;;4.63;3.53;;;24.30;96.60;;;;;;5075316;28;20074;-70
2021/10/01 04:46:33;;;;;;;7.72;3.70;;;23.80;97.70;;;;;;5075071;28;20033;-71
2021/10/01 04:49:00;;;;;;;4.90;3.80;;;23.80;99.10;;;;;;5073744;28;20447;-71
2021/10/01 04:51:28;;;;;;;4.78;3.75;;;23.80;99.60;;;;;;5075092;28;20024;-70
2021/10/01 04:53:56;;;;;;;4.53;3.50;;;23.80;99.10;;;;;;5073728;28;20024;-70
2021/10/01 04:56:23;;;;;;;5.82;3.65;;;23.30;99.90;;;;;;5074522;28;20042;-70
2021/10/01 04:58:51;;;;;;;4.53;3.72;;;23.20;99.90;;;;;;5073502;28;20399;-70
2021/10/01 05:01:18;;;;;;;4.93;3.17;;;23.30;99.90;;;;;;5074826;28;20058;-70
2021/10/01 05:03:46;;;;;;;4.93;3.17;;;23.10;99.60;;;;;;5073493;28;20027;-71
2021/10/01 05:06:13;;;;;;;5.47;3.33;;;23.10;99.90;;;;;;5073465;28;20035;-70
2021/10/01 05:08:40;;;;;;;4.30;3.17;;;22.80;99.90;;;;;;5074789;28;20039;-71
2021/10/01 05:11:08;;;;;;;4.60;3.35;;;22.80;99.90;;;;;;5074477;28;20451;-71
2021/10/01 05:13:35;;;;;;;4.63;3.10;;;22.50;99.90;;;;;;5073185;28;20032;-71
2021/10/01 05:16:03;;;;;;;3.53;3.22;;;22.50;99.90;;;;;;5074361;28;20036;-70
2021/10/01 05:18:31;;;;;;;5.40;2.90;;;22.50;99.90;;;;;;5073189;28;20399;-71
2021/10/01 05:21:02;;;;;;;3.63;3.25;;;22.70;99.90;;;;;;5074318;28;20075;-70
2021/10/01 05:23:31;;;;;;;6.80;4.05;;;22.50;99.90;;;;;;5074382;28;20020;-70
2021/10/01 05:25:59;;;;;;;7.20;3.33;;;22.40;99.90;;;;;;5073022;28;20035;-71
2021/10/01 05:28:27;;;;;;;5.35;3.42;;;22.00;99.90;;;;;;5074246;28;20107;-71
2021/10/01 05:30:54;;;;;;;6.03;4.55;;;21.90;99.90;;;;;;5074064;28;20036;-73
2021/10/01 05:33:22;;;;;;;6.57;4.20;;;21.90;99.90;;;;;;5072874;28;20119;-71
2021/10/01 05:35:49;;;;;;;6.38;4.40;;;21.60;99.90;;;;;;5073875;28;20064;-71
2021/10/01 05:38:17;;;;;;;4.93;4.53;;;21.60;99.90;;;;;;5072591;28;20056;-71
2021/10/01 05:40:45;;;;;;;4.93;4.35;;;21.50;99.90;;;;;;5072648;28;20027;-70
2021/10/01 05:43:12;;;;;;;9.40;4.93;;;21.40;99.90;;;;;;5073891;28;20473;-71
2021/10/01 05:45:40;;;;;;;6.63;4.93;;;21.30;99.90;;;;;;5072706;28;20024;-71
2021/10/01 05:48:08;;;;;;;7.43;4.57;;;21.30;99.90;;;;;;5073855;28;20052;-70
2021/10/01 05:50:40;;;;;;;6.70;4.55;;;21.30;99.90;;;;;;5073731;28;20074;-71
2021/10/01 05:53:14;;;;;;;9.30;4.85;;;21.10;99.90;;;;;;5073809;28;20052;-71
2021/10/01 05:55:42;;;;;;;9.43;4.53;;;21.10;99.90;;;;;;5073582;28;20032;-73
2021/10/01 05:58:09;;;;;;;7.82;5.03;;;21.10;99.90;;;;;;5073617;28;20023;-71
2021/10/01 06:00:37;;;;;;;8.57;5.47;;;20.90;99.90;;;;;;5073618;28;20260;-70
2021/10/01 06:03:04;;;;;;;7.72;5.10;;;20.80;99.90;;;;;;5073628;28;20115;-70
2021/10/01 06:05:31;;;;;;;7.65;4.75;;;20.80;99.90;;;;;;5072119;28;20096;-71
2021/10/01 06:07:59;;;;;;;7.05;4.70;;;20.80;99.90;;;;;;5072766;28;20230;-70
2021/10/01 06:10:26;;;;;;;7.47;5.28;;;20.80;99.90;;;;;;5073369;28;20536;-70
2021/10/01 06:12:54;;;;;;;10.50;5.65;;;20.70;99.90;;;;;;5072021;28;20035;-72
2021/10/01 06:15:23;;;;;;;7.88;5.32;;;20.60;99.90;;;;;;5071750;28;20461;-72
2021/10/01 06:17:50;;;;;;;7.05;5.10;;;20.60;99.90;;;;;;5073330;28;20025;-72
2021/10/01 06:20:17;;;;;;;6.50;5.28;;;20.50;99.90;;;;;;5073330;28;20020;-69
2021/10/01 06:22:45;;;;;;;8.65;5.47;;;20.50;99.90;;;;;;5073420;28;20107;-71
2021/10/01 06:25:12;;;;;;;5.97;5.38;;;20.40;99.90;;;;;;5073246;28;20032;-68
2021/10/01 06:27:39;;;;;;;10.65;5.60;;;20.50;99.90;;;;;;5071908;28;20031;-69
2021/10/01 06:30:09;;;;;;;8.15;5.85;;;20.50;99.90;;;;;;5071937;28;20039;-70
2021/10/01 06:32:38;;;;;;;7.05;6.35;;;20.50;99.90;;;;;;5071601;28;20373;-71
2021/10/01 06:35:07;;;;;;;10.05;6.13;;;20.50;99.90;;;;;;5072767;28;20544;-72
2021/10/01 06:37:35;;;;;;;6.13;5.40;;;20.50;99.90;;;;;;5073010;28;20013;-72
2021/10/01 06:40:03;;;;;;;10.27;5.70;;;20.40;99.90;;;;;;5073030;28;20384;-71
2021/10/01 06:42:31;;;;;;;10.05;5.55;;;20.50;99.90;;;;;;5072911;28;20020;-72
2021/10/01 06:45:02;;;;;;;7.30;5.30;;;20.50;99.90;;;;;;5071559;28;20439;-73
2021/10/01 07:45:26;;;;;;;9.40;8.60;;;15.70;99.90;;;;;;5076535;28;20069;-72
2021/10/01 08:20:50;;;;;;;6.28;5.78;;;16.30;99.90;;;;;;5067940;28;20115;-72
2021/10/01 08:23:18;;;;;;;6.45;5.95;;;16.30;99.90;;;;;;5074261;28;20029;-72
2021/10/01 08:25:46;;;;;;;6.90;6.35;;;16.30;99.90;;;;;;5075550;28;20020;-71
2021/10/01 08:28:13;;;;;;;6.80;6.20;;;16.40;99.90;;;;;;5074498;28;20029;-72
2021/10/01 08:30:41;;;;;;;7.35;6.65;;;16.40;99.90;;;;;;5073554;28;20485;-70
2021/10/01 08:33:08;;;;;;;7.20;6.60;;;16.50;99.90;;;;;;5075437;28;20103;-71
2021/10/01 08:35:35;;;;;;;11.43;6.13;;;16.60;99.90;;;;;;5075250;28;20032;-70
2021/10/01 08:38:03;;;;;;;6.68;6.03;;;16.60;99.90;;;;;;5075268;28;20047;-70
2021/10/01 08:40:34;;;;;;;6.90;6.25;;;16.50;99.90;;;;;;5075070;28;20021;-70
2021/10/01 08:43:02;;;;;;;7.65;6.93;;;16.60;99.90;;;;;;5075179;28;20027;-71
2021/10/01 08:45:29;;;;;;;8.63;7.88;;;16.60;99.90;;;;;;5075159;28;20493;-70
2021/10/01 08:47:58;;;;;;;8.07;7.35;;;16.60;99.90;;;;;;5075120;28;20103;-70
2021/10/01 08:50:27;;;;;;;7.22;6.53;;;16.60;99.90;;;;;;5073919;28;20020;-71
2021/10/01 08:53:03;;;;;;;8.57;7.47;;;16.60;99.90;;;;;;5075476;28;20103;-72
2021/10/01 08:55:30;;;;;;;7.38;6.65;;;16.60;99.90;;;;;;5075196;28;20468;-72
2021/10/01 08:57:58;;;;;;;9.00;8.23;;;16.60;99.90;;;;;;5073704;28;20025;-71
2021/10/01 09:00:27;;;;;;;8.32;7.45;;;16.60;99.90;;;;;;5057101;28;20024;-69
2021/10/01 09:02:54;;;;;;;11.02;6.97;;;16.50;99.90;;;;;;5074801;28;20073;-71
2021/10/01 09:05:21;;;;;;;8.45;6.32;;;16.50;99.90;;;;;;5074747;28;20020;-71
2021/10/01 09:07:49;;;;;;;9.05;6.63;;;16.40;99.90;;;;;;5073360;28;20077;-71
2021/10/01 09:10:16;;;;;;;6.82;6.20;;;16.30;99.90;;;;;;5074623;28;20397;-71
2021/10/01 09:12:53;;;;;;;6.68;5.82;;;16.20;99.90;;;;;;5074559;28;20073;-71
2021/10/01 09:15:21;;;;;;;6.57;5.97;;;16.20;99.90;;;;;;5074256;28;20039;-71
2021/10/01 09:17:51;;;;;;;8.23;6.10;;;16.10;99.90;;;;;;5074507;28;20052;-71
2021/10/01 09:20:24;;;;;;;11.60;6.78;;;15.90;99.90;;;;;;5074410;28;20025;-71
2021/10/01 09:22:51;;;;;;;6.05;4.43;;;15.80;99.90;;;;;;5073224;28;20031;-72
2021/10/01 09:25:24;;;;;;;8.20;7.43;;;15.80;99.90;;;;;;5072936;28;20098;-72
2021/10/01 09:28:00;;;;;;;8.50;7.70;;;15.80;99.90;;;;;;5072968;28;20081;-72
2021/10/01 09:30:28;;;;;;;8.38;7.25;;;15.80;99.90;;;;;;5074421;28;20480;-71
2021/10/01 09:33:08;;;;;;;8.18;7.38;;;15.70;99.90;;;;;;5072787;28;20035;-71
2021/10/01 09:35:36;;;;;;;8.13;7.32;;;15.70;99.90;;;;;;5073500;28;20497;-73
2021/10/01 09:38:14;;;;;;;7.50;6.30;;;15.70;99.90;;;;;;5074062;28;20385;-71
2021/10/01 09:40:45;;;;;;;7.30;6.60;;;15.80;99.90;;;;;;5073729;28;20024;-71
2021/10/01 09:43:31;;;;;;;10.77;7.80;;;15.70;99.90;;;;;;5073648;28;20099;-70
2021/10/01 09:46:13;;;;;;;8.40;7.63;;;15.70;99.90;;;;;;5074118;28;20025;-70
2021/10/01 09:48:42;;;;;;;7.80;7.10;;;15.60;99.90;;;;;;5074069;28;20393;-69
2021/10/01 09:51:10;;;;;;;8.25;7.65;;;15.60;99.90;;;;;;5073980;28;20489;-71
2021/10/01 09:53:49;;;;;;;7.53;7.03;;;15.60;99.90;;;;;;5072461;28;20536;-69
2021/10/01 09:56:24;;;;;;;7.88;7.38;;;15.60;99.90;;;;;;5073811;28;20028;-69
2021/10/01 09:59:12;;;;;;;8.35;7.22;;;15.60;99.90;;;;;;5073798;28;20027;-71
2021/10/01 10:02:04;;;;;;;8.30;7.55;;;15.60;99.90;;;;;;5072363;28;20024;-69
2021/10/01 10:04:54;;;;;;;7.97;7.35;;;15.60;99.90;;;;;;5065404;28;20037;-70
2021/10/01 10:07:27;;;;;;;8.43;7.85;;;15.50;99.90;;;;;;5073612;28;20020;-71
2021/10/01 10:10:04;;;;;;;8.90;8.20;;;15.50;99.90;;;;;;5073455;28;20028;-71
2021/10/01 10:12:34;;;;;;;8.00;7.60;;;15.40;99.90;;;;;;5073685;28;20028;-71
2021/10/01 10:15:17;;;;;;;8.55;8.05;;;15.30;99.90;;;;;;5073197;28;20024;-71
2021/10/01 10:17:52;;;;;;;8.10;7.60;;;15.30;99.90;;;;;;5073260;28;20016;-70
2021/10/01 10:20:21;;;;;;;8.32;7.72;;;15.20;99.90;;;;;;5073190;28;20017;-69
2021/10/01 10:22:48;;;;;;;8.00;7.38;;;15.20;99.90;;;;;;5073201;28;20031;-70
2021/10/01 10:25:16;;;;;;;8.93;8.13;;;15.30;99.90;;;;;;5071795;28;20112;-70
2021/10/01 10:27:44;;;;;;;8.40;7.80;;;15.20;99.90;;;;;;5073245;28;20077;-70
2021/10/01 10:30:13;;;;;;;8.20;7.75;;;15.30;99.90;;;;;;5073221;28;20112;-70
2021/10/01 10:32:41;;;;;;;8.13;7.50;;;15.30;99.90;;;;;;5073476;28;20469;-70
2021/10/01 10:35:11;;;;;;;8.23;7.63;;;15.30;99.90;;;;;;5072038;28;20051;-71
2021/10/01 10:37:44;;;;;;;8.68;7.90;;;15.30;99.90;;;;;;5073406;28;20024;-70
2021/10/01 10:40:14;;;;;;;7.95;7.38;;;15.40;99.90;;;;;;5073017;28;20029;-71
2021/10/01 10:42:44;;;;;;;8.20;7.70;;;15.40;99.90;;;;;;5072010;28;20135;-71
2021/10/01 10:45:24;;;;;;;7.32;6.90;;;15.40;99.90;;;;;;5073207;28;20059;-70
2021/10/01 10:48:10;;;;;;;7.35;6.80;;;15.40;99.90;;;;;;5071777;28;20036;-71
2021/10/01 10:50:50;;;;;;;7.68;6.93;;;15.40;99.90;;;;;;5072991;28;20055;-71
2021/10/01 10:53:21;;;;;;;8.05;7.55;;;15.30;99.90;;;;;;5072575;28;20031;-71
2021/10/01 10:56:05;;;;;;;7.30;6.90;;;15.30;99.90;;;;;;5072763;28;20060;-70
2021/10/01 10:58:32;;;;;;;7.70;7.20;;;15.30;99.90;;;;;;5072775;28;20025;-71
2021/10/01 11:01:02;;;;;;;8.02;7.53;;;15.30;99.90;;;;;;5071322;28;20099;-71
2021/10/01 11:03:33;;;;;;;7.22;6.78;;;15.20;99.90;;;;;;5072565;28;20023;-70
2021/10/01 11:06:10;;;;;;;7.50;7.00;;;15.30;99.90;;;;;;5071391;28;20512;-71
2021/10/01 11:08:43;;;;;;;7.93;7.43;;;15.20;99.90;;;;;;5072713;28;20114;-71
2021/10/01 11:11:29;;;;;;;8.00;7.47;;;15.20;99.90;;;;;;5072684;28;20024;-70
2021/10/01 11:14:28;;;;;;;7.75;7.30;;;15.20;99.90;;;;;;5071167;28;20025;-71
2021/10/01 11:16:56;;;;;;;7.97;7.38;;;15.20;99.90;;;;;;5072230;28;20444;-71
2021/10/01 11:19:50;;;;;;;7.72;7.22;;;15.10;99.90;;;;;;5071232;28;20484;-71
2021/10/01 11:22:39;;;;;;;7.63;7.22;;;15.00;99.90;;;;;;5071211;28;20025;-71
2021/10/01 11:25:15;;;;;;;8.35;7.88;;;15.00;99.90;;;;;;5072640;28;20504;-71
2021/10/01 11:28:02;;;;;;;8.23;7.82;;;14.90;99.90;;;;;;5071148;28;20528;-71
2021/10/01 11:30:37;;;;;;;8.27;7.57;;;14.90;99.90;;;;;;5071097;28;20048;-71
2021/10/01 11:33:12;;;;;;;8.38;7.88;;;14.80;99.90;;;;;;5071093;28;20025;-71
2021/10/01 11:35:48;;;;;;;7.97;7.35;;;14.80;99.90;;;;;;5072301;28;20381;-70
2021/10/01 11:38:42;;;;;;;8.35;7.85;;;14.80;99.90;;;;;;5071059;28;20021;-70
2021/10/01 11:41:16;;;;;;;8.23;7.60;;;14.80;99.90;;;;;;5068158;28;20469;-70
2021/10/01 11:43:52;;;;;;;7.65;7.20;;;14.70;99.90;;;;;;5072431;28;20548;-70
2021/10/01 11:46:47;;;;;;;8.57;8.07;;;14.90;99.90;;;;;;5072468;28;20028;-71
2021/10/01 11:49:24;;;;;;;9.60;8.90;;;14.80;99.90;;;;;;5069413;28;20032;-71
2021/10/01 11:52:16;;;;;;;8.88;8.38;;;14.80;99.90;;;;;;5072434;28;20021;-70
2021/10/01 11:54:53;;;;;;;8.57;7.95;;;14.90;99.90;;;;;;5071160;28;20043;-70
2021/10/01 11:57:21;;;;;;;9.07;8.57;;;14.80;99.90;;;;;;5070958;28;20024;-72
2021/10/01 11:59:50;;;;;;;8.07;7.53;;;14.80;99.90;;;;;;5072333;28;20023;-70
2021/10/01 12:02:37;;;;;;;8.18;7.78;;;14.80;99.90;;;;;;5070764;28;20037;-71
2021/10/01 12:05:35;;;;;;;8.85;8.35;;;14.70;99.90;;;;;;5073582;28;20012;-71
2021/10/01 12:08:10;;;;;;;9.55;9.05;;;14.80;99.90;;;;;;5074580;28;20109;-70
2021/10/01 12:10:39;;;;;;;9.13;8.52;;;14.90;99.90;;;;;;5075855;28;20017;-71
2021/10/01 12:13:22;;;;;;;9.23;8.82;;;14.90;99.90;;;;;;5075823;28;20021;-71
2021/10/01 12:15:50;;;;;;;9.30;8.68;;;14.80;99.90;;;;;;5074249;28;20051;-71
2021/10/01 12:18:41;;;;;;;9.25;8.75;;;14.80;99.90;;;;;;5075735;28;20032;-70
2021/10/01 12:21:18;;;;;;;9.57;9.07;;;14.80;99.90;;;;;;5074402;28;20070;-71
2021/10/01 12:23:48;;;;;;;9.00;8.40;;;14.80;99.90;;;;;;5075679;28;20024;-71
2021/10/01 12:26:25;;;;;;;9.13;8.63;;;14.80;99.90;;;;;;5074255;28;20079;-70
2021/10/01 12:29:07;;;;;;;8.50;8.10;;;14.90;99.90;;;;;;5075390;28;20489;-70
2021/10/01 12:31:44;;;;;;;8.82;8.25;;;14.90;99.90;;;;;;5074106;28;20024;-70
2021/10/01 12:34:18;;;;;;;9.20;8.60;;;14.90;99.90;;;;;;5075493;28;20473;-70
2021/10/01 12:36:47;;;;;;;9.75;9.15;;;14.80;99.90;;;;;;5075263;28;20060;-70
2021/10/01 12:39:16;;;;;;;9.80;9.18;;;14.70;99.90;;;;;;5074008;28;20023;-70
2021/10/01 12:41:44;;;;;;;9.73;9.10;;;14.70;99.90;;;;;;5073939;28;20020;-69
2021/10/01 12:44:16;;;;;;;10.05;9.55;;;14.60;99.90;;;;;;5075214;28;20076;-70
2021/10/01 12:46:49;;;;;;;9.73;9.13;;;14.60;99.90;;;;;;5073837;28;20032;-70
2021/10/01 12:49:29;;;;;;;9.52;9.10;;;14.60;99.90;;;;;;5073774;28;20094;-70
2021/10/01 12:52:11;;;;;;;9.48;9.07;;;14.50;99.90;;;;;;5075160;28;20027;-70
2021/10/01 12:54:45;;;;;;;9.77;9.20;;;14.50;99.90;;;;;;5073617;28;20035;-70
2021/10/01 12:57:41;;;;;;;9.18;8.77;;;14.50;99.90;;;;;;5074881;28;20366;-70
2021/10/01 13:00:10;;;;;;;9.55;9.05;;;14.50;99.90;;;;;;5074950;28;20139;-69
2021/10/01 13:02:40;;;;;;;9.45;8.95;;;14.40;99.90;;;;;;5074818;28;20020;-69
2021/10/01 13:05:14;;;;;;;10.13;9.52;;;14.40;99.90;;;;;;5073411;28;20040;-69
2021/10/01 13:07:44;;;;;;;10.02;9.43;;;14.50;99.90;;;;;;5074838;28;20104;-70
2021/10/01 13:10:14;;;;;;;10.35;9.75;;;14.60;99.90;;;;;;5073424;28;20048;-70
2021/10/01 13:13:01;;;;;;;10.13;9.60;;;14.70;99.90;;;;;;5074715;28;20020;-70
2021/10/01 13:15:49;;;;;;;10.23;9.52;;;14.60;99.90;;;;;;5074453;28;20036;-70
2021/10/01 13:18:42;;;;;;;9.90;9.40;;;14.60;99.90;;;;;;5074590;28;20056;-70
2021/10/01 13:21:24;;;;;;;9.10;8.60;;;14.40;99.90;;;;;;5074047;28;20033;-70
2021/10/01 13:24:01;;;;;;;9.73;9.00;;;14.50;99.90;;;;;;5074615;28;20078;-70
2021/10/01 13:26:39;;;;;;;9.70;9.10;;;14.50;99.90;;;;;;5074521;28;20032;-70
2021/10/01 13:29:12;;;;;;;9.18;8.68;;;14.50;99.90;;;;;;5074534;28;20025;-70
2021/10/01 13:31:45;;;;;;;9.13;8.73;;;14.40;99.90;;;;;;5074382;28;20055;-71
2021/10/01 13:34:14;;;;;;;9.68;9.07;;;14.30;99.90;;;;;;5074382;28;20020;-70
2021/10/01 13:36:42;;;;;;;9.43;8.93;;;14.30;99.90;;;;;;5074230;28;20086;-70
2021/10/01 13:39:10;;;;;;;9.00;8.60;;;14.20;99.90;;;;;;5074188;28;20418;-69
2021/10/01 13:41:42;;;;;;;8.82;8.32;;;14.10;99.90;;;;;;5074214;28;20021;-70
2021/10/01 13:44:10;;;;;;;9.07;8.57;;;14.10;99.90;;;;;;5074407;28;20021;-70
2021/10/01 13:46:38;;;;;;;9.23;8.57;;;14.00;99.90;;;;;;5074295;28;20025;-70
2021/10/01 13:49:05;;;;;;;9.10;8.50;;;14.00;99.90;;;;;;5072736;28;20111;-70
2021/10/01 13:51:32;;;;;;;8.90;8.20;;;14.20;99.90;;;;;;5073979;28;20048;-70
2021/10/01 13:54:00;;;;;;;9.10;8.50;;;14.20;99.90;;;;;;5072597;28;20111;-70
2021/10/01 13:56:27;;;;;;;8.00;7.50;;;14.30;99.90;;;;;;5073797;28;20040;-70
2021/10/01 13:58:54;;;;;;;7.88;7.40;;;14.40;99.90;;;;;;5072685;28;20432;-70
2021/10/01 14:01:22;;;;;;;7.30;6.90;;;14.40;99.90;;;;;;5072482;28;20025;-70
2021/10/01 14:03:49;;;;;;;7.70;7.35;;;14.30;99.90;;;;;;5073664;28;20366;-70
2021/10/01 14:06:17;;;;;;;8.07;7.57;;;14.20;99.90;;;;;;5073636;28;20025;-71
2021/10/01 14:08:44;;;;;;;8.60;8.20;;;14.10;99.90;;;;;;5073576;28;20048;-71
2021/10/01 14:11:11;;;;;;;8.00;7.60;;;14.00;99.90;;;;;;5073616;28;20402;-70
2021/10/01 14:13:39;;;;;;;7.90;7.50;;;13.90;99.90;;;;;;5073559;28;20032;-71
2021/10/01 14:16:06;;;;;;;8.05;7.60;;;13.90;99.90;;;;;;5073434;28;20044;-70
2021/10/01 14:18:33;;;;;;;7.88;7.47;;;13.80;99.90;;;;;;5073483;28;20028;-70
2021/10/01 14:21:01;;;;;;;7.93;7.53;;;13.70;99.90;;;;;;5072093;28;20469;-71
2021/10/01 14:23:28;;;;;;;9.35;8.75;;;13.70;99.90;;;;;;5072142;28;20020;-72
2021/10/01 14:25:55;;;;;;;9.25;8.75;;;13.80;99.90;;;;;;5071984;28;20029;-70
2021/10/01 14:28:23;;;;;;;9.45;8.95;;;13.90;99.90;;;;;;5072766;28;20031;-71
2021/10/01 14:30:50;;;;;;;9.63;9.18;;;13.90;99.90;;;;;;5073227;28;20411;-70
2021/10/01 14:33:17;;;;;;;9.30;8.90;;;14.30;99.90;;;;;;5071912;28;20036;-71
2021/10/01 14:35:45;;;;;;;9.10;8.65;;;13.90;99.90;;;;;;5071734;28;20393;-71
2021/10/01 14:38:13;;;;;;;9.27;8.77;;;13.90;99.90;;;;;;5072572;28;20554;-70